createdAt,value
2022-08-30T00:05:23.182Z,0
2022-08-30T00:15:00.217Z,0
2022-08-30T00:24:37.118Z,0
2022-08-30T00:34:14.458Z,0
2022-08-30T00:43:51.533Z,0
2022-08-30T00:53:28.384Z,0
2022-08-30T01:03:05.461Z,0
2022-08-30T01:12:42.286Z,0
2022-08-30T01:22:19.168Z,0
2022-08-30T01:31:56.153Z,0
2022-08-30T01:41:33.298Z,0
2022-08-30T01:51:10.355Z,0
2022-08-30T02:00:47.033Z,0
2022-08-30T02:10:24.291Z,0
2022-08-30T02:20:01.444Z,0
2022-08-30T02:29:38.176Z,0
2022-08-30T02:39:15.047Z,0
2022-08-30T02:48:52.460Z,0
2022-08-30T02:58:29.613Z,0
2022-08-30T03:08:06.487Z,0.83
2022-08-30T03:17:43.589Z,0.83
2022-08-30T03:27:20.656Z,0
2022-08-30T03:36:57.603Z,0
2022-08-30T03:46:37.420Z,0
2022-08-30T03:56:10.883Z,0.83
2022-08-30T04:05:48.008Z,5
2022-08-30T04:15:25.201Z,24.17
2022-08-30T04:25:02.379Z,58.33
2022-08-30T04:34:39.440Z,123.33
2022-08-30T04:44:19.042Z,202.5
2022-08-30T04:53:53.348Z,303.33
2022-08-30T05:03:30.569Z,380
2022-08-30T05:13:08.293Z,448.33
2022-08-30T05:22:45.776Z,536.67
2022-08-30T05:32:23.519Z,583.33
2022-08-30T05:42:01.116Z,630
2022-08-30T05:51:41.210Z,670
2022-08-30T06:01:16.579Z,705
2022-08-30T06:10:54.204Z,745.83
2022-08-30T06:20:31.941Z,790
2022-08-30T06:30:09.797Z,837.5
2022-08-30T06:39:47.008Z,894.17
2022-08-30T06:49:25.086Z,937.5
2022-08-30T06:59:02.753Z,985.83
2022-08-30T07:08:40.586Z,1038.33
2022-08-30T07:18:18.455Z,1061.67
2022-08-30T07:27:56.462Z,1095.83
2022-08-30T07:37:34.545Z,1148.33
2022-08-30T07:47:12.698Z,1199.17
2022-08-30T07:56:50.839Z,1257.5
2022-08-30T08:06:32.946Z,1033.33
2022-08-30T08:16:08.144Z,1373.33
2022-08-30T08:25:46.282Z,1500.83
2022-08-30T08:35:24.896Z,1515.83
2022-08-30T08:45:04.647Z,1705
2022-08-30T08:54:41.520Z,1832.5
2022-08-30T09:04:20.314Z,2020
2022-08-30T09:13:58.690Z,2058.33
2022-08-30T09:23:36.717Z,2199.17
2022-08-30T09:33:15.252Z,2453.33
2022-08-30T09:42:53.772Z,2692.5
2022-08-30T09:52:32.761Z,3364.17
2022-08-30T10:02:25.875Z,24134.17
2022-08-30T10:12:18.086Z,27884.17
2022-08-30T10:22:03.434Z,30241.67
2022-08-30T10:31:43.441Z,31720.83
2022-08-30T10:41:18.160Z,39618.33
2022-08-30T10:51:03.883Z,39805.83
2022-08-30T11:00:40.977Z,37875
2022-08-30T11:10:22.886Z,45067.5
2022-08-30T11:20:03.262Z,32882.5
2022-08-30T11:29:38.824Z,30558.33
2022-08-30T11:39:02.103Z,17692.5
2022-08-30T11:48:55.372Z,42979.16
2022-08-30T11:58:43.996Z,44161.66
2022-08-30T12:08:27.969Z,42698.33
2022-08-30T12:37:08.056Z,6010.83
2022-08-30T12:46:34.013Z,25663.33
2022-08-30T12:56:35.173Z,9552.5
2022-08-30T13:05:40.495Z,5840
2022-08-30T13:15:16.215Z,8447.5
2022-08-30T13:34:44.327Z,4919.17
2022-08-30T13:44:11.222Z,7015.83
2022-08-30T13:54:03.833Z,4605.83
2022-08-30T14:13:36.086Z,11630.83
2022-08-30T14:22:52.458Z,5215.83
2022-08-30T14:32:24.231Z,6195.83
2022-08-30T14:52:02.064Z,9847.5
2022-08-30T15:01:42.375Z,9180
2022-08-30T15:11:21.742Z,10870.83
2022-08-30T15:21:00.076Z,9500.83
2022-08-30T15:30:37.169Z,9002.5
2022-08-30T15:40:09.319Z,4711.67
2022-08-30T15:49:37.124Z,3445.83
2022-08-30T15:59:12.010Z,4175.83
2022-08-30T16:18:22.166Z,2266.67
2022-08-30T16:27:58.035Z,1825.83
2022-08-30T16:37:34.083Z,1630.83
2022-08-30T16:47:04.480Z,1435.83
2022-08-30T16:56:40.967Z,1107.5
2022-08-30T17:06:17.885Z,964.17
2022-08-30T17:15:54.321Z,870
2022-08-30T17:25:33.982Z,676.67
2022-08-30T17:35:07.429Z,480
2022-08-30T17:44:44.292Z,263.33
2022-08-30T17:54:20.738Z,127.5
2022-08-30T18:04:01.549Z,55.83
2022-08-30T18:13:34.734Z,20
2022-08-30T18:23:11.615Z,5
2022-08-30T18:32:48.506Z,0.83
2022-08-30T18:42:25.095Z,0
2022-08-30T18:52:02.327Z,0
2022-08-30T19:01:39.195Z,0
2022-08-30T19:11:15.893Z,0
2022-08-30T19:20:52.139Z,0
2022-08-30T19:30:30.134Z,0
2022-08-30T19:40:05.646Z,0
2022-08-30T19:49:42.586Z,0
2022-08-30T19:59:19.209Z,0
2022-08-30T20:08:56.809Z,0
2022-08-30T20:18:33.032Z,0
2022-08-30T20:28:09.923Z,0
2022-08-30T20:37:46.502Z,0
2022-08-30T20:47:23.772Z,0
2022-08-30T20:57:01.299Z,0
2022-08-30T21:06:37.858Z,0
2022-08-30T21:16:14.779Z,0
2022-08-30T21:25:51.668Z,0
2022-08-30T21:35:28.850Z,0
2022-08-30T21:45:05.819Z,0
2022-08-30T21:54:42.772Z,0
2022-08-30T22:04:24.382Z,0
2022-08-30T22:13:57.535Z,0
2022-08-30T22:23:34.593Z,0
2022-08-30T22:33:11.187Z,0
2022-08-30T22:42:48.596Z,0
2022-08-30T22:52:25.549Z,0
2022-08-30T23:02:02.470Z,0
2022-08-30T23:11:39.313Z,0
2022-08-30T23:21:16.489Z,0
2022-08-30T23:30:53.619Z,0
2022-08-30T23:40:30.846Z,0
2022-08-30T23:50:07.898Z,0
2022-08-30T23:59:45.059Z,0
